createdAt,value
2019-03-03T00:02:09.840Z,9.96
2019-03-03T00:04:52.135Z,9.95
2019-03-03T00:07:41.742Z,9.91
2019-03-03T00:10:22.655Z,9.92
2019-03-03T00:13:03.302Z,9.94
2019-03-03T00:18:59.855Z,9.91
2019-03-03T00:21:41.951Z,9.89
2019-03-03T00:24:50.459Z,9.91
2019-03-03T00:27:32.674Z,9.92
2019-03-03T00:33:30.671Z,9.93
2019-03-03T00:39:39.022Z,9.96
2019-03-03T00:42:47.535Z,9.99
2019-03-03T00:45:48.776Z,10.03
2019-03-03T00:48:57.614Z,9.94
2019-03-03T00:51:51.969Z,9.89
2019-03-03T00:55:00.457Z,9.89
2019-03-03T00:57:53.452Z,9.89
2019-03-03T01:03:57.043Z,9.94
2019-03-03T01:06:58.384Z,9.95
2019-03-03T01:10:06.987Z,10.05
2019-03-03T01:16:05.166Z,10.10
2019-03-03T01:19:00.017Z,10.15
2019-03-03T01:21:36.031Z,10.15
2019-03-03T01:24:23.653Z,10.17
2019-03-03T01:26:54.558Z,10.25
2019-03-03T01:29:25.397Z,10.23
2019-03-03T01:31:55.908Z,10.25
2019-03-03T01:34:26.703Z,10.29
2019-03-03T01:36:57.207Z,10.37
2019-03-03T01:39:28.007Z,10.30
2019-03-03T01:42:17.634Z,10.32
2019-03-03T01:45:26.937Z,10.35
2019-03-03T01:48:08.961Z,10.37
2019-03-03T01:50:58.686Z,10.40
2019-03-03T01:53:41.184Z,10.40
2019-03-03T01:59:37.997Z,10.35
2019-03-03T02:02:27.922Z,10.38
2019-03-03T02:08:25.347Z,10.34
2019-03-03T02:14:04.486Z,10.38
2019-03-03T02:16:34.986Z,10.39
2019-03-03T02:19:06.074Z,10.35
2019-03-03T02:21:37.163Z,10.37
2019-03-03T02:24:07.657Z,10.39
2019-03-03T02:26:38.173Z,10.35
2019-03-03T02:29:08.795Z,10.39
2019-03-03T02:31:39.319Z,10.37
2019-03-03T02:34:29.581Z,10.35
2019-03-03T02:40:16.258Z,10.34
2019-03-03T02:42:46.751Z,10.29
2019-03-03T02:45:17.563Z,10.29
2019-03-03T02:47:48.093Z,10.28
2019-03-03T02:50:18.581Z,10.31
2019-03-03T02:52:49.055Z,10.26
2019-03-03T02:55:19.556Z,10.28
2019-03-03T02:57:50.020Z,10.27
2019-03-03T03:03:33.753Z,10.25
2019-03-03T03:12:48.842Z,10.25
2019-03-03T03:15:42.869Z,10.25
2019-03-03T03:18:51.647Z,10.28
2019-03-03T03:21:53.838Z,10.27
2019-03-03T03:25:02.336Z,10.31
2019-03-03T03:28:03.610Z,10.28
2019-03-03T03:34:24.605Z,10.28
2019-03-03T03:37:20.473Z,10.28
2019-03-03T03:40:29.393Z,10.24
2019-03-03T03:43:30.519Z,10.24
2019-03-03T03:46:34.125Z,10.21
2019-03-03T03:49:23.432Z,10.18
2019-03-03T03:52:28.911Z,10.22
2019-03-03T03:55:30.591Z,10.20
2019-03-03T03:58:20.356Z,10.23
2019-03-03T04:01:09.993Z,10.16
2019-03-03T04:03:56.785Z,10.12
2019-03-03T04:06:35.814Z,10.07
2019-03-03T04:09:19.755Z,10.03
2019-03-03T04:12:28.323Z,9.98
2019-03-03T04:15:28.008Z,10.00
2019-03-03T04:18:27.479Z,10.03
2019-03-03T04:21:28.216Z,10.03
2019-03-03T04:27:31.482Z,10.14
2019-03-03T04:30:06.589Z,10.16
2019-03-03T04:32:55.991Z,10.22
2019-03-03T04:35:45.370Z,10.25
2019-03-03T04:41:46.449Z,10.35
2019-03-03T04:47:55.593Z,10.35
2019-03-03T04:50:35.699Z,10.36
2019-03-03T04:53:15.866Z,10.37
2019-03-03T04:56:24.330Z,10.40
2019-03-03T04:59:51.858Z,10.39
2019-03-03T05:02:58.670Z,10.48
2019-03-03T05:08:43.948Z,10.55
2019-03-03T05:12:19.054Z,10.59
2019-03-03T05:15:46.655Z,10.62
2019-03-03T05:18:48.183Z,10.63
2019-03-03T05:24:43.744Z,10.67
2019-03-03T05:27:33.381Z,10.72
2019-03-03T05:30:16.083Z,10.61
2019-03-03T05:33:05.908Z,10.61
2019-03-03T05:35:48.508Z,10.63
2019-03-03T05:41:44.538Z,10.61
2019-03-03T05:44:15.516Z,10.62
2019-03-03T05:46:46.001Z,10.60
2019-03-03T05:49:16.813Z,10.68
2019-03-03T05:51:47.308Z,10.65
2019-03-03T05:54:17.782Z,10.66
2019-03-03T05:56:48.278Z,10.72
2019-03-03T05:59:37.929Z,10.70
2019-03-03T06:02:46.439Z,10.71
2019-03-03T06:05:27.120Z,10.73
2019-03-03T06:08:09.040Z,10.83
2019-03-03T06:10:58.708Z,10.84
2019-03-03T06:13:41.447Z,10.87
2019-03-03T06:16:31.359Z,10.85
2019-03-03T06:19:01.934Z,10.87
2019-03-03T06:21:32.667Z,10.90
2019-03-03T06:24:41.670Z,10.91
2019-03-03T06:30:38.207Z,10.82
2019-03-03T06:39:29.768Z,10.74
2019-03-03T06:42:11.987Z,10.71
2019-03-03T06:45:20.493Z,10.68
2019-03-03T06:48:02.798Z,10.76
2019-03-03T06:51:11.280Z,10.74
2019-03-03T06:53:53.738Z,10.79
2019-03-03T06:56:43.349Z,10.82
2019-03-03T06:59:13.828Z,10.83
2019-03-03T07:01:44.555Z,10.83
2019-03-03T07:04:15.117Z,10.85
2019-03-03T07:06:45.602Z,10.85
2019-03-03T07:09:16.119Z,10.89
2019-03-03T07:11:46.750Z,10.98
2019-03-03T07:14:17.213Z,11.00
2019-03-03T07:16:47.706Z,11.04
2019-03-03T07:19:37.719Z,11.04
2019-03-03T07:26:17.555Z,11.14
2019-03-03T07:32:04.285Z,11.14
2019-03-03T07:37:55.392Z,11.18
2019-03-03T07:40:37.978Z,11.20
2019-03-03T07:43:46.858Z,11.20
2019-03-03T07:46:28.635Z,11.22
2019-03-03T07:49:18.535Z,11.27
2019-03-03T07:52:01.370Z,11.29
2019-03-03T07:55:10.627Z,11.32
2019-03-03T07:57:53.027Z,11.38
2019-03-03T08:00:42.639Z,11.38
2019-03-03T08:03:24.682Z,11.40
2019-03-03T08:06:33.196Z,11.40
2019-03-03T08:09:15.067Z,11.43
2019-03-03T08:12:23.969Z,11.39
2019-03-03T08:15:06.378Z,11.41
2019-03-03T08:17:55.997Z,11.37
2019-03-03T08:20:38.391Z,11.30
2019-03-03T08:23:28.060Z,11.27
2019-03-03T08:26:09.942Z,11.25
2019-03-03T08:29:18.651Z,11.19
2019-03-03T08:32:00.647Z,11.06
2019-03-03T08:34:31.196Z,10.96
2019-03-03T08:37:01.712Z,10.88
2019-03-03T08:39:32.199Z,10.75
2019-03-03T08:42:21.611Z,10.59
2019-03-03T08:45:09.463Z,10.58
2019-03-03T08:47:53.176Z,10.51
2019-03-03T08:50:35.115Z,10.46
2019-03-03T08:53:33.632Z,10.45
2019-03-03T08:56:32.053Z,10.42
2019-03-03T08:59:21.489Z,10.40
2019-03-03T09:02:08.289Z,10.40
2019-03-03T09:04:54.713Z,10.44
2019-03-03T09:07:38.710Z,10.50
2019-03-03T09:10:25.523Z,10.56
2019-03-03T09:13:14.353Z,10.56
2019-03-03T09:16:03.942Z,10.63
2019-03-03T09:19:05.797Z,10.62
2019-03-03T09:22:14.451Z,10.65
2019-03-03T09:25:13.979Z,10.67
2019-03-03T09:28:15.075Z,10.73
2019-03-03T09:34:25.851Z,10.68
2019-03-03T09:37:34.693Z,10.72
2019-03-03T09:40:30.861Z,10.67
2019-03-03T09:43:32.840Z,10.66
2019-03-03T09:46:41.629Z,10.65
2019-03-03T09:49:30.607Z,10.71
2019-03-03T09:52:39.086Z,10.72
2019-03-03T09:55:45.799Z,10.73
2019-03-03T09:58:54.315Z,10.76
2019-03-03T10:01:55.728Z,10.74
2019-03-03T10:05:01.049Z,10.73
2019-03-03T10:08:00.879Z,10.80
2019-03-03T10:11:02.469Z,10.85
2019-03-03T10:17:20.570Z,10.85
2019-03-03T10:20:48.504Z,10.89
2019-03-03T10:23:49.341Z,10.88
2019-03-03T10:30:05.910Z,10.93
2019-03-03T10:32:55.595Z,10.95
2019-03-03T10:39:05.270Z,10.98
2019-03-03T10:42:05.991Z,11.00
2019-03-03T10:45:14.521Z,11.02
2019-03-03T10:48:10.840Z,11.06
2019-03-03T10:50:58.580Z,11.09
2019-03-03T10:57:13.275Z,11.14
2019-03-03T11:00:01.457Z,11.21
2019-03-03T11:02:59.995Z,11.26
2019-03-03T11:05:55.611Z,11.24
2019-03-03T11:08:48.116Z,11.28
2019-03-03T11:11:43.370Z,11.30
2019-03-03T11:14:24.021Z,11.35
2019-03-03T11:17:23.631Z,11.39
2019-03-03T11:20:32.487Z,11.42
2019-03-03T11:23:33.157Z,11.44
2019-03-03T11:26:41.700Z,11.45
2019-03-03T11:29:35.172Z,11.42
2019-03-03T11:35:51.982Z,11.48
2019-03-03T11:38:32.479Z,11.53
2019-03-03T11:41:18.692Z,11.56
2019-03-03T11:44:11.832Z,11.59
2019-03-03T11:46:50.172Z,11.62
2019-03-03T11:49:32.345Z,11.73
2019-03-03T11:52:22.047Z,11.80
2019-03-03T11:55:09.889Z,11.85
2019-03-03T11:57:55.337Z,11.84
2019-03-03T12:00:56.116Z,11.82
2019-03-03T12:03:43.831Z,11.85
2019-03-03T12:06:20.657Z,11.80
2019-03-03T12:09:08.699Z,11.83
2019-03-03T12:12:13.029Z,11.86
2019-03-03T12:15:01.232Z,11.87
2019-03-03T12:17:46.916Z,11.92
2019-03-03T12:20:41.883Z,11.99
2019-03-03T12:23:31.344Z,12.02
2019-03-03T12:26:11.652Z,12.10
2019-03-03T12:29:15.805Z,12.14
2019-03-03T12:32:11.162Z,12.18
2019-03-03T12:35:06.812Z,12.18
2019-03-03T12:37:59.296Z,12.19
2019-03-03T12:40:51.603Z,12.19
2019-03-03T12:43:45.162Z,12.24
2019-03-03T12:46:26.945Z,12.21
2019-03-03T12:49:25.012Z,12.25
2019-03-03T12:52:02.193Z,12.27
2019-03-03T12:55:10.746Z,12.32
2019-03-03T13:01:18.241Z,12.31
2019-03-03T13:03:56.037Z,12.29
2019-03-03T13:06:39.682Z,12.28
2019-03-03T13:09:29.738Z,12.29
2019-03-03T13:12:15.760Z,12.32
2019-03-03T13:14:56.644Z,12.30
2019-03-03T13:17:48.835Z,12.36
2019-03-03T13:20:35.903Z,12.37
2019-03-03T13:23:11.718Z,12.42
2019-03-03T13:26:06.695Z,12.40
2019-03-03T13:29:02.402Z,12.44
2019-03-03T13:32:07.016Z,12.43
2019-03-03T13:35:02.032Z,12.44
2019-03-03T13:37:45.641Z,12.43
2019-03-03T13:40:26.730Z,12.42
2019-03-03T13:43:00.169Z,12.41
2019-03-03T13:45:36.083Z,12.40
2019-03-03T13:48:06.871Z,12.40
2019-03-03T13:50:37.714Z,12.38
2019-03-03T13:53:08.299Z,12.34
2019-03-03T13:55:38.974Z,12.34
2019-03-03T13:58:09.597Z,12.30
2019-03-03T14:00:40.178Z,12.30
2019-03-03T14:03:11.013Z,12.27
2019-03-03T14:05:41.622Z,12.26
2019-03-03T14:08:12.230Z,12.24
2019-03-03T14:14:03.581Z,12.27
2019-03-03T14:19:45.125Z,12.29
2019-03-03T14:22:34.826Z,12.30
2019-03-03T14:25:43.635Z,12.29
2019-03-03T14:34:05.105Z,12.38
2019-03-03T14:36:35.699Z,12.34
2019-03-03T14:39:08.313Z,12.36
2019-03-03T14:41:39.154Z,12.38
2019-03-03T14:44:09.937Z,12.40
2019-03-03T14:46:40.855Z,12.43
2019-03-03T14:49:12.613Z,12.44
2019-03-03T14:51:43.122Z,12.44
2019-03-03T14:54:13.686Z,12.45
2019-03-03T14:56:44.613Z,12.44
2019-03-03T14:59:15.095Z,12.47
2019-03-03T15:01:45.694Z,12.46
2019-03-03T15:04:16.292Z,12.47
2019-03-03T15:06:46.802Z,12.48
2019-03-03T15:09:22.102Z,12.50
2019-03-03T15:11:52.811Z,12.52
2019-03-03T15:14:23.359Z,12.55
2019-03-03T15:16:54.239Z,12.56
2019-03-03T15:19:24.760Z,12.58
2019-03-03T15:21:55.275Z,12.61
2019-03-03T15:24:25.879Z,12.64
2019-03-03T15:26:56.355Z,12.62
2019-03-03T15:29:26.960Z,12.66
2019-03-03T15:31:57.477Z,12.68
2019-03-03T15:34:28.058Z,12.67
2019-03-03T15:36:58.577Z,12.67
2019-03-03T15:39:29.263Z,12.69
2019-03-03T15:42:00.013Z,12.70
2019-03-03T15:44:30.546Z,12.71
2019-03-03T15:47:01.297Z,12.76
2019-03-03T15:49:31.785Z,12.70
2019-03-03T15:52:02.301Z,12.70
2019-03-03T15:54:33.137Z,12.73
2019-03-03T15:57:04.035Z,12.74
2019-03-03T15:59:34.610Z,12.78
2019-03-03T16:02:24.448Z,12.76
2019-03-03T16:05:14.511Z,12.78
2019-03-03T16:07:57.079Z,12.79
2019-03-03T16:11:06.051Z,12.80
2019-03-03T16:13:48.416Z,12.78
2019-03-03T16:19:44.467Z,12.78
2019-03-03T16:22:15.523Z,12.80
2019-03-03T16:24:46.709Z,12.83
2019-03-03T16:27:17.329Z,12.86
2019-03-03T16:29:48.424Z,12.88
2019-03-03T16:32:18.926Z,12.83
2019-03-03T16:34:49.519Z,12.82
2019-03-03T16:37:20.045Z,12.82
2019-03-03T16:39:50.603Z,12.87
2019-03-03T16:42:21.701Z,12.86
2019-03-03T16:44:52.448Z,12.90
2019-03-03T16:47:22.934Z,12.86
2019-03-03T16:49:53.484Z,12.90
2019-03-03T16:52:24.023Z,12.90
2019-03-03T16:54:54.492Z,12.90
2019-03-03T16:57:25.073Z,12.92
2019-03-03T16:59:55.797Z,12.97
2019-03-03T17:02:26.275Z,12.90
2019-03-03T17:04:56.790Z,12.95
2019-03-03T17:10:53.185Z,12.91
2019-03-03T17:13:42.773Z,12.99
2019-03-03T17:16:32.698Z,13.00
2019-03-03T17:19:15.595Z,12.99
2019-03-03T17:22:05.369Z,13.03
2019-03-03T17:24:46.270Z,13.06
2019-03-03T17:27:29.732Z,13.00
2019-03-03T17:30:21.349Z,12.98
2019-03-03T17:33:03.733Z,13.04
2019-03-03T17:35:53.345Z,13.03
2019-03-03T17:38:36.209Z,13.08
2019-03-03T17:41:18.654Z,13.04
2019-03-03T17:44:08.547Z,13.01
2019-03-03T17:46:51.161Z,13.03
2019-03-03T17:49:40.884Z,13.04
2019-03-03T17:52:20.673Z,12.98
2019-03-03T17:55:02.833Z,13.05
2019-03-03T17:57:52.524Z,13.03
2019-03-03T18:00:36.799Z,12.99
2019-03-03T18:06:38.792Z,13.03
2019-03-03T18:09:24.974Z,13.01
2019-03-03T18:12:14.939Z,12.99
2019-03-03T18:14:57.682Z,12.97
2019-03-03T18:17:47.594Z,13.02
2019-03-03T18:20:29.510Z,12.98
2019-03-03T18:23:38.021Z,13.02
2019-03-03T18:26:20.303Z,13.00
2019-03-03T18:31:58.024Z,12.96
2019-03-03T18:37:35.530Z,13.01
2019-03-03T18:40:25.245Z,12.99
2019-03-03T18:43:07.304Z,13.00
2019-03-03T18:45:56.928Z,12.99
2019-03-03T18:48:39.098Z,12.98
2019-03-03T18:51:29.036Z,13.04
2019-03-03T18:54:11.504Z,13.04
2019-03-03T18:57:01.154Z,13.04
2019-03-03T18:59:43.118Z,13.01
2019-03-03T19:02:51.611Z,13.00
2019-03-03T19:05:33.615Z,12.99
2019-03-03T19:08:42.304Z,13.00
2019-03-03T19:11:24.349Z,13.04
2019-03-03T19:14:13.976Z,13.00
2019-03-03T19:16:55.841Z,12.99
2019-03-03T19:19:45.468Z,13.05
2019-03-03T19:22:27.504Z,13.00
2019-03-03T19:28:25.179Z,13.12
2019-03-03T19:31:14.838Z,13.09
2019-03-03T19:33:57.728Z,13.07
2019-03-03T19:36:47.385Z,13.09
2019-03-03T19:39:29.706Z,13.05
2019-03-03T19:45:15.737Z,13.04
2019-03-03T19:47:47.179Z,13.05
2019-03-03T19:50:18.205Z,13.08
2019-03-03T19:52:48.698Z,13.06
2019-03-03T19:55:19.402Z,13.13
2019-03-03T19:57:50.147Z,13.16
2019-03-03T20:00:35.043Z,13.12
2019-03-03T20:03:00.449Z,13.17
2019-03-03T20:05:30.971Z,13.24
2019-03-03T20:08:01.819Z,13.21
2019-03-03T20:10:32.326Z,13.22
2019-03-03T20:13:02.893Z,13.30
2019-03-03T20:15:33.365Z,13.29
2019-03-03T20:18:04.338Z,13.23
2019-03-03T20:20:34.874Z,13.24
2019-03-03T20:23:06.016Z,13.26
2019-03-03T20:25:36.492Z,13.17
2019-03-03T20:28:07.065Z,13.17
2019-03-03T20:30:38.198Z,13.14
2019-03-03T20:33:08.759Z,13.12
2019-03-03T20:35:39.902Z,13.15
2019-03-03T20:38:10.694Z,13.12
2019-03-03T20:40:41.720Z,13.21
2019-03-03T20:43:12.531Z,13.23
2019-03-03T20:45:43.115Z,13.20
2019-03-03T20:48:13.735Z,13.22
2019-03-03T20:50:44.232Z,13.26
2019-03-03T20:53:14.716Z,13.28
2019-03-03T20:55:45.453Z,13.28
2019-03-03T20:58:16.004Z,13.35
2019-03-03T21:00:46.875Z,13.39
2019-03-03T21:03:17.370Z,13.40
2019-03-03T21:05:47.923Z,13.42
2019-03-03T21:08:18.480Z,13.48
2019-03-03T21:10:49.669Z,13.48
2019-03-03T21:13:20.224Z,13.56
2019-03-03T21:15:50.815Z,13.56
2019-03-03T21:18:21.940Z,13.60
2019-03-03T21:20:52.574Z,13.56
2019-03-03T21:23:23.359Z,13.49
2019-03-03T21:25:54.654Z,13.46
2019-03-03T21:28:25.237Z,13.38
2019-03-03T21:30:55.760Z,13.32
2019-03-03T21:33:26.250Z,13.32
2019-03-03T21:36:16.109Z,13.30
2019-03-03T21:38:58.728Z,13.34
2019-03-03T21:41:48.417Z,13.40
2019-03-03T21:44:30.406Z,13.41
2019-03-03T21:47:12.396Z,13.36
2019-03-03T21:50:02.049Z,13.38
2019-03-03T21:52:44.357Z,13.43
2019-03-03T21:55:34.322Z,13.39
2019-03-03T21:58:15.006Z,13.37
2019-03-03T22:04:12.699Z,13.38
2019-03-03T22:10:03.264Z,13.38
2019-03-03T22:12:45.951Z,13.41
2019-03-03T22:15:54.489Z,13.41
2019-03-03T22:18:36.632Z,13.40
2019-03-03T22:21:45.168Z,13.42
2019-03-03T22:24:27.647Z,13.40
2019-03-03T22:27:17.311Z,13.44
2019-03-03T22:29:59.790Z,13.49
2019-03-03T22:35:37.665Z,13.48
2019-03-03T22:47:26.868Z,13.28
2019-03-03T22:53:11.401Z,13.20
2019-03-03T22:55:53.710Z,13.18
2019-03-03T22:58:24.525Z,13.11
2019-03-03T23:01:06.824Z,13.08
2019-03-03T23:04:20.435Z,13.06
2019-03-03T23:07:30.843Z,13.08
2019-03-03T23:10:56.333Z,13.07
2019-03-03T23:13:55.154Z,13.12
2019-03-03T23:17:28.001Z,13.10
2019-03-03T23:20:25.383Z,13.10
2019-03-03T23:24:13.777Z,13.09
2019-03-03T23:26:45.575Z,13.13
2019-03-03T23:29:16.043Z,13.15
2019-03-03T23:31:47.008Z,13.14
2019-03-03T23:34:17.522Z,13.13
2019-03-03T23:36:48.663Z,13.24
2019-03-03T23:39:20.583Z,13.27
2019-03-03T23:41:51.052Z,13.35
2019-03-03T23:44:59.798Z,13.34
2019-03-03T23:47:42.785Z,13.33
2019-03-03T23:50:51.302Z,13.34
2019-03-03T23:53:34.279Z,13.34
2019-03-03T23:56:24.244Z,13.34
2019-03-03T23:59:06.423Z,13.33
